Time;durP1;ratioP1;P1;durP2;ratioP2;P2;SDS_P1;SDS_P2;PMS_P1;PMS_P2;Temp;Humidity;BMP_temperature;BMP_pressure;BME280_temperature;BME280_humidity;BME280_pressure;Samples;Min_cycle;Max_cycle;Signal;HPM_P1;HPM_P2
2022/08/03 00:04:29;;;;;;;6.20;1.23;;;;;;;;;;10384662;28;20041;-57
2022/08/03 00:09:30;;;;;;;2.22;1.10;;;;;;;;;;10374741;28;20374;-55
2022/08/03 00:14:30;;;;;;;8.65;1.10;;;;;;;;;;10374624;28;20053;-51
2022/08/03 00:19:31;;;;;;;2.90;1.27;;;;;;;;;;10376846;28;20381;-53
2022/08/03 00:24:31;;;;;;;2.60;1.30;;;;;;;;;;10374270;28;20099;-52
2022/08/03 00:29:32;;;;;;;2.15;1.17;;;;;;;;;;10369229;28;20034;-51
2022/08/03 00:34:32;;;;;;;1.60;1.10;;;;;;;;;;10382017;28;20038;-51
2022/08/03 00:39:33;;;;;;;1.77;1.02;;;;;;;;;;10372842;28;20042;-55
2022/08/03 00:44:41;;;;;;;3.47;1.50;;;;;;;;;;10375476;28;20033;-49
2022/08/03 00:49:42;;;;;;;0.85;0.85;;;;;;;;;;10374002;28;20109;-56
2022/08/03 00:54:43;;;;;;;1.15;1.02;;;;;;;;;;10389172;28;20375;-56
2022/08/03 00:59:43;;;;;;;2.47;1.33;;;;;;;;;;10373085;28;20033;-56
2022/08/03 01:04:44;;;;;;;5.00;1.33;;;;;;;;;;10368786;28;20042;-56
2022/08/03 01:10:32;;;;;;;1.95;0.95;;;;;;;;;;10372144;28;20478;-56
2022/08/03 01:15:59;;;;;;;1.05;0.90;;;;;;;;;;10357540;28;20568;-56
2022/08/03 01:21:05;;;;;;;4.80;1.55;;;;;;;;;;10357290;28;20508;-55
2022/08/03 01:27:02;;;;;;;4.57;1.52;;;;;;;;;;10355989;28;20406;-55
2022/08/03 01:32:34;;;;;;;4.57;1.50;;;;;;;;;;10365396;28;20378;-56
2022/08/03 01:37:51;;;;;;;1.08;0.98;;;;;;;;;;10354908;28;20030;-54
2022/08/03 01:42:56;;;;;;;2.35;1.02;;;;;;;;;;10380479;28;20040;-55
2022/08/03 01:47:57;;;;;;;2.88;1.30;;;;;;;;;;10385847;28;20393;-55
2022/08/03 01:52:58;;;;;;;3.03;1.00;;;;;;;;;;10352316;28;20367;-50
2022/08/03 01:58:02;;;;;;;4.13;1.42;;;;;;;;;;10389225;28;20041;-50
2022/08/03 02:03:08;;;;;;;2.65;1.45;;;;;;;;;;10370463;28;20025;-50
2022/08/03 02:08:12;;;;;;;3.25;1.23;;;;;;;;;;10385211;28;20053;-51
2022/08/03 02:13:15;;;;;;;4.65;1.20;;;;;;;;;;10376724;28;20029;-56
2022/08/03 02:18:18;;;;;;;8.63;1.20;;;;;;;;;;10357769;28;20044;-52
2022/08/03 02:23:19;;;;;;;2.90;1.30;;;;;;;;;;10351707;28;20018;-53
2022/08/03 02:28:23;;;;;;;3.72;1.30;;;;;;;;;;10371997;28;20044;-52
2022/08/03 02:33:30;;;;;;;2.72;1.10;;;;;;;;;;10383213;28;20032;-52
2022/08/03 02:38:35;;;;;;;3.73;1.30;;;;;;;;;;10347654;28;20398;-52
2022/08/03 02:43:39;;;;;;;1.05;0.95;;;;;;;;;;10383095;28;20164;-52
2022/08/03 02:48:41;;;;;;;2.15;1.38;;;;;;;;;;10368053;28;20037;-52
2022/08/03 02:53:44;;;;;;;2.15;1.30;;;;;;;;;;10382741;28;20025;-53
2022/08/03 02:58:48;;;;;;;2.88;1.20;;;;;;;;;;10357186;28;20113;-51
2022/08/03 03:03:50;;;;;;;7.47;1.27;;;;;;;;;;10393725;23;20040;-52
2022/08/03 03:08:52;;;;;;;3.30;1.30;;;;;;;;;;10434351;28;20029;-51
2022/08/03 03:13:56;;;;;;;4.47;1.38;;;;;;;;;;10447710;28;20096;-52
2022/08/03 03:18:57;;;;;;;2.95;1.25;;;;;;;;;;10448559;28;20127;-52
2022/08/03 03:23:58;;;;;;;2.80;1.35;;;;;;;;;;10434198;28;20022;-52
2022/08/03 03:29:01;;;;;;;5.88;1.65;;;;;;;;;;10448770;28;20053;-49
2022/08/03 03:34:02;;;;;;;5.35;2.17;;;;;;;;;;10434425;28;20271;-58
2022/08/03 03:39:02;;;;;;;7.55;1.70;;;;;;;;;;10438143;28;20596;-58
2022/08/03 03:44:03;;;;;;;4.50;1.75;;;;;;;;;;10421799;28;20033;-58
2022/08/03 03:49:08;;;;;;;1.65;1.40;;;;;;;;;;10434601;28;20168;-58
2022/08/03 03:54:09;;;;;;;3.17;1.63;;;;;;;;;;10435513;28;20248;-57
2022/08/03 03:59:10;;;;;;;3.85;1.40;;;;;;;;;;10443964;28;20590;-58
2022/08/03 04:14:54;;;;;;;3.55;1.75;;;;;;;;;;10420915;28;20045;-58
2022/08/03 04:19:56;;;;;;;3.05;1.60;;;;;;;;;;10434271;28;20048;-59
2022/08/03 04:25:08;;;;;;;6.32;1.30;;;;;;;;;;10453381;28;20025;-58
2022/08/03 04:30:09;;;;;;;4.18;1.60;;;;;;;;;;10440482;28;20392;-59
2022/08/03 04:35:10;;;;;;;6.25;1.58;;;;;;;;;;10431821;28;20469;-58
2022/08/03 04:40:17;;;;;;;3.13;1.50;;;;;;;;;;10441748;28;20037;-58
2022/08/03 04:45:19;;;;;;;2.47;1.33;;;;;;;;;;10424871;28;20440;-59
2022/08/03 04:50:21;;;;;;;7.75;1.80;;;;;;;;;;10459710;28;20083;-57
2022/08/03 04:55:27;;;;;;;6.70;1.83;;;;;;;;;;10460554;28;20032;-57
2022/08/03 05:00:28;;;;;;;2.00;1.20;;;;;;;;;;10424674;28;20075;-57
2022/08/03 05:05:28;;;;;;;3.47;1.38;;;;;;;;;;10454107;28;20048;-57
2022/08/03 05:10:29;;;;;;;1.38;1.10;;;;;;;;;;10455314;28;20440;-59
2022/08/03 05:15:30;;;;;;;2.97;1.42;;;;;;;;;;10447803;28;20021;-57
2022/08/03 05:20:31;;;;;;;2.20;1.48;;;;;;;;;;10440767;28;20037;-56
2022/08/03 05:25:31;;;;;;;1.10;1.00;;;;;;;;;;10412966;28;20034;-57
2022/08/03 05:30:32;;;;;;;2.10;1.33;;;;;;;;;;10454633;28;20108;-57
2022/08/03 05:35:34;;;;;;;3.35;1.38;;;;;;;;;;10438716;28;20052;-57
2022/08/03 05:40:35;;;;;;;1.60;1.38;;;;;;;;;;10451857;28;20436;-58
2022/08/03 05:45:37;;;;;;;1.90;1.15;;;;;;;;;;10444732;28;20082;-57
2022/08/03 05:50:37;;;;;;;3.35;1.60;;;;;;;;;;10438838;28;20040;-58
2022/08/03 05:55:38;;;;;;;2.38;1.40;;;;;;;;;;10443004;28;20028;-57
2022/08/03 06:00:38;;;;;;;4.40;1.65;;;;;;;;;;10437830;28;20120;-58
2022/08/03 06:05:39;;;;;;;3.17;1.60;;;;;;;;;;10452337;28;20056;-56
2022/08/03 06:10:40;;;;;;;24.00;1.83;;;;;;;;;;10450328;28;20476;-57
2022/08/03 06:15:41;;;;;;;10.70;2.13;;;;;;;;;;10450641;28;20481;-58
2022/08/03 06:20:41;;;;;;;6.93;1.55;;;;;;;;;;10446850;28;20041;-57
2022/08/03 06:25:42;;;;;;;5.55;1.40;;;;;;;;;;10452280;28;20025;-58
2022/08/03 06:30:44;;;;;;;3.67;1.45;;;;;;;;;;10451490;28;20469;-58
2022/08/03 06:35:45;;;;;;;5.32;1.38;;;;;;;;;;10451125;28;20017;-57
2022/08/03 06:40:45;;;;;;;4.88;1.65;;;;;;;;;;10440982;28;20472;-61
2022/08/03 06:45:46;;;;;;;2.55;1.48;;;;;;;;;;10442888;28;20036;-57
2022/08/03 06:50:47;;;;;;;3.90;1.30;;;;;;;;;;10472765;28;20036;-57
2022/08/03 06:55:47;;;;;;;3.42;1.35;;;;;;;;;;10440839;28;20034;-57
2022/08/03 07:00:48;;;;;;;3.05;1.50;;;;;;;;;;10433777;28;20037;-59
2022/08/03 07:05:50;;;;;;;2.42;1.55;;;;;;;;;;10431191;28;20059;-57
2022/08/03 07:10:50;;;;;;;2.78;1.58;;;;;;;;;;10436027;28;20037;-57
2022/08/03 07:15:51;;;;;;;4.60;1.60;;;;;;;;;;10441136;28;20025;-58
2022/08/03 07:20:51;;;;;;;9.93;2.08;;;;;;;;;;10452923;28;20052;-57
2022/08/03 07:25:52;;;;;;;4.90;1.73;;;;;;;;;;10457094;28;20477;-57
2022/08/03 07:30:52;;;;;;;6.70;2.13;;;;;;;;;;10449453;28;20032;-58
2022/08/03 07:35:53;;;;;;;4.00;1.70;;;;;;;;;;10433922;28;20482;-57
2022/08/03 07:40:54;;;;;;;4.63;1.70;;;;;;;;;;10448125;28;20458;-57
2022/08/03 07:45:54;;;;;;;7.25;1.50;;;;;;;;;;10423609;28;20090;-58
2022/08/03 07:50:55;;;;;;;9.95;2.08;;;;;;;;;;10447763;28;20230;-57
2022/08/03 07:55:55;;;;;;;10.73;2.30;;;;;;;;;;10440752;28;20079;-58
2022/08/03 08:00:56;;;;;;;10.20;2.20;;;;;;;;;;10447815;28;20043;-58
2022/08/03 08:05:57;;;;;;;4.85;1.75;;;;;;;;;;10433618;28;20041;-58
2022/08/03 08:10:57;;;;;;;7.10;2.20;;;;;;;;;;10448086;28;20522;-57
2022/08/03 08:15:58;;;;;;;9.48;2.20;;;;;;;;;;10429028;28;20029;-57
2022/08/03 08:21:00;;;;;;;8.65;2.10;;;;;;;;;;10455846;28;20494;-58
2022/08/03 08:26:00;;;;;;;7.60;1.90;;;;;;;;;;10442528;28;20136;-57
2022/08/03 08:31:01;;;;;;;11.88;2.90;;;;;;;;;;10456625;28;20054;-57
2022/08/03 08:36:02;;;;;;;7.22;2.20;;;;;;;;;;10453665;28;20049;-57
2022/08/03 08:41:03;;;;;;;11.98;2.25;;;;;;;;;;10443961;28;20037;-58
2022/08/03 08:46:07;;;;;;;13.27;2.50;;;;;;;;;;10453851;28;20032;-58
2022/08/03 08:51:10;;;;;;;12.48;2.60;;;;;;;;;;10442477;28;20068;-57
2022/08/03 08:56:15;;;;;;;11.82;2.20;;;;;;;;;;10455068;28;20040;-58
2022/08/03 09:01:20;;;;;;;7.80;2.13;;;;;;;;;;10440506;28;20441;-58
2022/08/03 09:06:22;;;;;;;6.95;2.20;;;;;;;;;;10455401;28;20060;-57
2022/08/03 09:11:23;;;;;;;6.97;2.22;;;;;;;;;;10440714;28;20020;-59
2022/08/03 09:16:24;;;;;;;3.80;1.80;;;;;;;;;;10446366;28;20026;-58
2022/08/03 09:21:29;;;;;;;10.43;2.63;;;;;;;;;;10449173;28;20075;-59
2022/08/03 09:26:32;;;;;;;8.02;2.00;;;;;;;;;;10454308;28;20468;-57
2022/08/03 09:31:36;;;;;;;8.38;2.25;;;;;;;;;;10446691;28;20107;-58
2022/08/03 09:36:49;;;;;;;5.55;1.90;;;;;;;;;;10441112;28;20025;-57
2022/08/03 09:42:11;;;;;;;5.20;2.20;;;;;;;;;;10446910;28;20029;-58
2022/08/03 09:47:14;;;;;;;6.13;2.15;;;;;;;;;;10452600;28;20052;-57
2022/08/03 09:52:18;;;;;;;7.07;2.00;;;;;;;;;;10453268;28;20021;-57
2022/08/03 09:57:26;;;;;;;5.05;1.92;;;;;;;;;;10447488;28;20033;-58
2022/08/03 10:02:27;;;;;;;10.80;2.40;;;;;;;;;;10444765;28;20024;-60
2022/08/03 10:07:27;;;;;;;6.35;2.05;;;;;;;;;;10452833;28;20036;-59
2022/08/03 10:12:28;;;;;;;4.35;2.17;;;;;;;;;;10451461;28;20473;-58
2022/08/03 10:17:29;;;;;;;7.90;2.30;;;;;;;;;;10452829;28;20267;-60
2022/08/03 10:22:34;;;;;;;10.32;2.88;;;;;;;;;;10452361;28;20032;-58
2022/08/03 10:27:40;;;;;;;7.43;2.17;;;;;;;;;;10438201;28;20044;-58
2022/08/03 10:32:45;;;;;;;3.25;2.22;;;;;;;;;;10452557;28;20057;-58
2022/08/03 10:38:00;;;;;;;6.40;2.25;;;;;;;;;;10436786;28;20064;-57
2022/08/03 10:43:10;;;;;;;6.15;2.20;;;;;;;;;;10449703;28;20035;-57
2022/08/03 10:48:12;;;;;;;4.00;2.38;;;;;;;;;;10436281;28;20048;-57
2022/08/03 10:53:12;;;;;;;7.13;2.00;;;;;;;;;;10450643;28;20029;-57
2022/08/03 10:58:13;;;;;;;6.82;2.00;;;;;;;;;;10434193;28;20026;-58
2022/08/03 11:03:13;;;;;;;4.95;2.33;;;;;;;;;;10449469;28;20107;-58
2022/08/03 11:08:35;;;;;;;3.83;2.10;;;;;;;;;;10450775;28;20033;-57
2022/08/03 11:13:36;;;;;;;3.10;1.90;;;;;;;;;;10423712;28;20034;-57
2022/08/03 11:18:55;;;;;;;2.17;1.83;;;;;;;;;;10450122;28;20029;-58
2022/08/03 11:23:56;;;;;;;6.22;1.85;;;;;;;;;;10444150;28;20033;-57
2022/08/03 11:30:05;;;;;;;4.20;2.10;;;;;;;;;;10449224;28;20037;-57
2022/08/03 11:35:16;;;;;;;1.77;1.60;;;;;;;;;;10279762;28;20152;-58
2022/08/03 11:40:49;;;;;;;4.07;1.70;;;;;;;;;;10280766;28;20027;-57
2022/08/03 11:46:06;;;;;;;8.00;1.73;;;;;;;;;;10280512;28;20046;-58
2022/08/03 11:51:21;;;;;;;2.40;1.73;;;;;;;;;;10268493;28;20070;-57
2022/08/03 11:56:22;;;;;;;2.78;2.10;;;;;;;;;;10265466;28;20468;-58
2022/08/03 12:01:24;;;;;;;2.95;1.75;;;;;;;;;;10280388;28;20105;-58
2022/08/03 12:06:24;;;;;;;3.15;1.95;;;;;;;;;;10287231;28;20054;-57
2022/08/03 12:11:25;;;;;;;3.00;1.65;;;;;;;;;;10420507;28;20040;-58
2022/08/03 12:16:27;;;;;;;3.30;1.50;;;;;;;;;;10447651;28;20029;-58
2022/08/03 12:21:28;;;;;;;4.22;1.70;;;;;;;;;;10433402;28;20086;-57
2022/08/03 12:26:48;;;;;;;2.53;1.52;;;;;;;;;;10411280;28;20030;-57
2022/08/03 12:31:48;;;;;;;1.98;1.63;;;;;;;;;;10437788;28;20033;-57
2022/08/03 12:36:51;;;;;;;4.63;1.67;;;;;;;;;;10428814;28;20084;-59
2022/08/03 12:41:54;;;;;;;2.83;1.88;;;;;;;;;;10456427;28;20431;-56
2022/08/03 12:46:57;;;;;;;7.38;1.75;;;;;;;;;;10411196;28;20030;-57
2022/08/03 12:51:59;;;;;;;3.35;1.73;;;;;;;;;;10441035;28;20037;-57
2022/08/03 12:57:08;;;;;;;7.65;2.00;;;;;;;;;;10432101;28;20468;-59
2022/08/03 13:02:21;;;;;;;2.95;2.10;;;;;;;;;;10425751;28;20104;-57
2022/08/03 13:07:22;;;;;;;2.95;1.90;;;;;;;;;;10452797;28;20065;-57
2022/08/03 13:12:25;;;;;;;3.72;1.52;;;;;;;;;;10436509;28;20083;-56
2022/08/03 13:17:27;;;;;;;4.13;2.00;;;;;;;;;;10422139;28;20017;-56
2022/08/03 13:22:27;;;;;;;3.45;1.88;;;;;;;;;;10425833;28;20037;-57
2022/08/03 13:27:29;;;;;;;2.88;1.88;;;;;;;;;;10421151;28;20547;-56
2022/08/03 13:32:30;;;;;;;5.13;2.20;;;;;;;;;;10447806;28;20021;-56
2022/08/03 13:37:31;;;;;;;6.07;1.98;;;;;;;;;;10442277;28;20082;-57
2022/08/03 13:42:33;;;;;;;5.70;1.88;;;;;;;;;;10453750;28;20038;-56
2022/08/03 13:47:34;;;;;;;3.78;1.90;;;;;;;;;;10442611;28;20048;-57
2022/08/03 13:52:35;;;;;;;3.20;1.98;;;;;;;;;;10442861;28;20026;-57
2022/08/03 13:57:35;;;;;;;3.53;1.70;;;;;;;;;;10442220;28;20068;-56
2022/08/03 14:02:36;;;;;;;4.75;1.90;;;;;;;;;;10429407;28;20044;-57
2022/08/03 14:07:37;;;;;;;2.80;1.60;;;;;;;;;;10443195;28;20055;-57
2022/08/03 14:12:38;;;;;;;2.90;1.83;;;;;;;;;;10442955;28;20038;-57
2022/08/03 14:17:39;;;;;;;3.03;1.70;;;;;;;;;;10442829;28;20033;-56
2022/08/03 14:22:39;;;;;;;1.92;1.60;;;;;;;;;;10442177;28;20094;-56
2022/08/03 14:27:40;;;;;;;3.60;1.60;;;;;;;;;;10441711;28;20029;-54
2022/08/03 14:32:40;;;;;;;3.38;1.90;;;;;;;;;;10444702;28;20035;-51
2022/08/03 14:37:41;;;;;;;11.07;2.53;;;;;;;;;;10437692;28;20498;-44
2022/08/03 14:42:42;;;;;;;15.52;2.47;;;;;;;;;;10448812;28;20456;-44
2022/08/03 14:47:45;;;;;;;14.80;2.22;;;;;;;;;;10450678;28;20523;-44
2022/08/03 14:52:45;;;;;;;14.38;2.30;;;;;;;;;;10450866;28;20044;-60
2022/08/03 14:57:46;;;;;;;6.03;2.42;;;;;;;;;;10442034;28;20108;-45
2022/08/03 15:02:46;;;;;;;7.55;2.33;;;;;;;;;;10446044;28;20083;-56
2022/08/03 15:07:47;;;;;;;9.05;2.00;;;;;;;;;;10448491;28;20063;-56
2022/08/03 15:12:48;;;;;;;3.63;1.60;;;;;;;;;;10441591;28;20026;-57
2022/08/03 15:17:48;;;;;;;2.33;1.55;;;;;;;;;;10418095;28;20271;-56
2022/08/03 15:22:49;;;;;;;2.70;1.77;;;;;;;;;;10441980;28;20033;-56
2022/08/03 15:27:49;;;;;;;6.28;1.80;;;;;;;;;;10449497;28;20098;-56
2022/08/03 15:32:50;;;;;;;3.80;2.05;;;;;;;;;;10449621;28;20025;-56
2022/08/03 15:37:50;;;;;;;2.35;1.60;;;;;;;;;;10458950;28;20117;-56
2022/08/03 15:42:51;;;;;;;6.28;2.00;;;;;;;;;;10444993;28;20024;-56
2022/08/03 15:47:52;;;;;;;7.32;2.10;;;;;;;;;;10448164;28;20035;-56
2022/08/03 15:52:55;;;;;;;6.82;1.98;;;;;;;;;;10448739;28;20032;-57
2022/08/03 15:57:56;;;;;;;12.15;2.85;;;;;;;;;;10440946;28;20025;-57
2022/08/03 16:02:56;;;;;;;5.10;2.17;;;;;;;;;;10434919;28;20025;-57
2022/08/03 16:07:57;;;;;;;6.50;1.98;;;;;;;;;;10448234;28;20497;-56
2022/08/03 16:12:58;;;;;;;8.13;2.28;;;;;;;;;;10440328;28;20087;-57
2022/08/03 16:17:59;;;;;;;5.07;2.15;;;;;;;;;;10435417;28;20047;-60
2022/08/03 16:23:00;;;;;;;6.68;2.53;;;;;;;;;;10441999;28;20052;-58
2022/08/03 16:28:01;;;;;;;6.15;2.00;;;;;;;;;;10448181;28;20037;-57
2022/08/03 16:33:02;;;;;;;7.65;2.22;;;;;;;;;;10448076;28;20082;-57
2022/08/03 16:38:05;;;;;;;2.53;1.52;;;;;;;;;;10434076;28;20029;-57
2022/08/03 16:43:14;;;;;;;7.15;1.98;;;;;;;;;;10435135;28;20359;-57
2022/08/03 16:48:15;;;;;;;3.58;1.70;;;;;;;;;;10433532;28;20158;-59
2022/08/03 16:53:16;;;;;;;7.68;1.95;;;;;;;;;;10441866;28;20534;-57
2022/08/03 16:58:18;;;;;;;3.22;1.90;;;;;;;;;;10442488;28;20090;-58
2022/08/03 17:03:20;;;;;;;2.25;2.05;;;;;;;;;;10455140;28;20035;-58
2022/08/03 17:08:20;;;;;;;3.88;1.60;;;;;;;;;;10454994;28;20488;-57
2022/08/03 17:13:21;;;;;;;7.13;1.83;;;;;;;;;;10454811;28;20044;-57
2022/08/03 17:18:24;;;;;;;2.15;1.50;;;;;;;;;;10455026;28;20178;-57
2022/08/03 17:23:58;;;;;;;3.25;1.83;;;;;;;;;;10439371;28;20392;-58
2022/08/03 17:29:04;;;;;;;5.50;1.60;;;;;;;;;;10413424;28;20073;-58
2022/08/03 17:34:05;;;;;;;1.95;1.35;;;;;;;;;;10427005;28;20026;-58
2022/08/03 17:39:05;;;;;;;2.65;1.38;;;;;;;;;;10436297;28;20119;-58
2022/08/03 17:44:07;;;;;;;3.20;1.60;;;;;;;;;;10436815;28;20496;-58
2022/08/03 17:49:08;;;;;;;1.65;1.50;;;;;;;;;;10416196;28;20095;-58
2022/08/03 17:54:23;;;;;;;1.58;1.33;;;;;;;;;;10437411;28;20024;-57
2022/08/03 17:59:29;;;;;;;1.30;1.20;;;;;;;;;;10439160;28;20056;-58
2022/08/03 18:04:37;;;;;;;1.70;1.60;;;;;;;;;;10430364;28;20048;-58
2022/08/03 18:09:44;;;;;;;4.38;1.70;;;;;;;;;;10457340;28;20090;-58
2022/08/03 18:14:58;;;;;;;2.15;1.60;;;;;;;;;;10426825;28;20237;-57
2022/08/03 18:19:59;;;;;;;3.42;1.60;;;;;;;;;;10423361;28;20037;-57
2022/08/03 18:25:03;;;;;;;5.43;1.63;;;;;;;;;;10442666;28;20385;-57
2022/08/03 18:30:04;;;;;;;6.50;1.88;;;;;;;;;;10452062;28;20048;-57
2022/08/03 18:35:06;;;;;;;5.38;1.85;;;;;;;;;;10440289;28;20021;-57
2022/08/03 18:40:07;;;;;;;3.65;1.98;;;;;;;;;;10450005;28;20029;-57
2022/08/03 18:45:08;;;;;;;6.85;1.98;;;;;;;;;;10436971;28;20432;-57
2022/08/03 18:50:18;;;;;;;14.70;2.10;;;;;;;;;;10430684;28;20029;-57
2022/08/03 18:55:54;;;;;;;7.40;1.55;;;;;;;;;;10428961;28;20029;-57
2022/08/03 19:01:12;;;;;;;10.05;1.35;;;;;;;;;;10432045;28;20077;-57
2022/08/03 19:06:21;;;;;;;5.88;1.73;;;;;;;;;;10440450;28;20480;-57
2022/08/03 19:11:32;;;;;;;8.60;1.77;;;;;;;;;;10414451;28;20491;-50
2022/08/03 19:16:40;;;;;;;8.43;1.60;;;;;;;;;;10412390;28;20105;-49
2022/08/03 19:21:43;;;;;;;4.93;1.55;;;;;;;;;;10437551;28;20484;-60
2022/08/03 19:26:46;;;;;;;13.80;1.58;;;;;;;;;;10446325;28;20136;-54
2022/08/03 19:31:48;;;;;;;2.75;1.35;;;;;;;;;;10449488;28;20029;-49
2022/08/03 19:36:49;;;;;;;5.43;1.77;;;;;;;;;;10449377;28;20033;-49
2022/08/03 19:41:54;;;;;;;2.95;1.33;;;;;;;;;;10440418;28;20029;-51
2022/08/03 19:47:13;;;;;;;2.60;1.30;;;;;;;;;;10448377;28;20029;-49
2022/08/03 19:52:18;;;;;;;1.83;1.10;;;;;;;;;;10440024;28;20419;-49
2022/08/03 19:57:23;;;;;;;2.60;1.10;;;;;;;;;;10437864;28;20044;-48
2022/08/03 20:02:24;;;;;;;3.72;1.70;;;;;;;;;;10427169;28;20086;-57
2022/08/03 20:07:27;;;;;;;3.67;1.20;;;;;;;;;;10430294;28;20085;-49
2022/08/03 20:12:29;;;;;;;1.63;1.00;;;;;;;;;;10440584;28;20017;-48
2022/08/03 20:17:29;;;;;;;4.47;1.15;;;;;;;;;;10451094;28;20032;-49
2022/08/03 20:22:36;;;;;;;2.85;1.30;;;;;;;;;;10444300;28;20040;-49
2022/08/03 20:27:46;;;;;;;2.80;1.10;;;;;;;;;;10446482;28;20108;-50
2022/08/03 20:32:46;;;;;;;1.58;1.23;;;;;;;;;;10444094;28;20379;-49
2022/08/03 20:37:47;;;;;;;6.45;1.38;;;;;;;;;;10454526;28;20033;-46
2022/08/03 20:42:47;;;;;;;1.88;1.05;;;;;;;;;;10450466;28;20090;-49
2022/08/03 20:47:49;;;;;;;4.50;1.27;;;;;;;;;;10455951;28;20060;-48
2022/08/03 20:52:49;;;;;;;2.47;1.48;;;;;;;;;;10459116;28;20068;-48
2022/08/03 20:57:52;;;;;;;3.55;1.42;;;;;;;;;;10443545;28;20028;-50
2022/08/03 21:02:53;;;;;;;3.03;1.63;;;;;;;;;;10420089;28;20026;-51
2022/08/03 21:08:01;;;;;;;3.40;1.60;;;;;;;;;;10445914;28;20071;-47
2022/08/03 21:13:15;;;;;;;5.22;1.42;;;;;;;;;;10449581;28;20033;-47
2022/08/03 21:18:17;;;;;;;7.82;1.58;;;;;;;;;;10454085;28;20021;-48
2022/08/03 21:23:20;;;;;;;3.95;1.65;;;;;;;;;;10453183;28;20028;-60
2022/08/03 21:28:23;;;;;;;9.32;2.03;;;;;;;;;;10452674;28;20472;-48
2022/08/03 21:33:27;;;;;;;2.92;1.48;;;;;;;;;;10452156;28;20029;-47
2022/08/03 21:38:29;;;;;;;4.90;1.92;;;;;;;;;;10446280;28;20028;-49
2022/08/03 21:43:29;;;;;;;3.22;1.80;;;;;;;;;;10449346;28;20354;-49
2022/08/03 21:48:37;;;;;;;4.18;1.60;;;;;;;;;;10449337;28;20021;-48
2022/08/03 21:53:39;;;;;;;4.68;2.00;;;;;;;;;;10455927;28;20037;-51
2022/08/03 21:59:05;;;;;;;4.15;1.98;;;;;;;;;;10461893;28;20097;-48
2022/08/03 22:04:06;;;;;;;6.13;1.95;;;;;;;;;;10450450;28;20033;-50
2022/08/03 22:09:07;;;;;;;5.05;1.85;;;;;;;;;;10452499;28;20025;-52
2022/08/03 22:14:08;;;;;;;3.28;2.00;;;;;;;;;;10454593;28;20026;-48
2022/08/03 22:19:10;;;;;;;3.05;2.00;;;;;;;;;;10469825;28;20033;-49
2022/08/03 22:24:10;;;;;;;4.10;1.75;;;;;;;;;;10451781;28;20107;-50
2022/08/03 22:29:11;;;;;;;3.80;1.60;;;;;;;;;;10454026;28;20036;-49
2022/08/03 22:34:12;;;;;;;4.13;1.70;;;;;;;;;;10451217;28;20116;-49
2022/08/03 22:39:13;;;;;;;4.60;2.10;;;;;;;;;;10456589;28;20131;-48
2022/08/03 22:44:14;;;;;;;1.63;1.52;;;;;;;;;;10452902;28;20041;-49
2022/08/03 22:49:15;;;;;;;2.53;1.60;;;;;;;;;;10452950;28;20446;-48
2022/08/03 22:54:16;;;;;;;5.18;1.63;;;;;;;;;;10449520;28;20096;-65
2022/08/03 22:59:18;;;;;;;2.88;1.80;;;;;;;;;;10443433;28;20032;-52
2022/08/03 23:04:19;;;;;;;5.00;1.60;;;;;;;;;;10444336;28;20048;-49
2022/08/03 23:09:23;;;;;;;2.90;1.60;;;;;;;;;;10453110;28;20060;-49
2022/08/03 23:14:26;;;;;;;5.25;2.00;;;;;;;;;;10448313;28;20461;-48
2022/08/03 23:19:28;;;;;;;1.60;1.50;;;;;;;;;;10455343;28;20033;-48
2022/08/03 23:24:32;;;;;;;2.20;1.38;;;;;;;;;;10427563;28;20116;-49
2022/08/03 23:29:37;;;;;;;7.82;1.92;;;;;;;;;;10454323;28;20373;-47
2022/08/03 23:39:59;;;;;;;23.40;2.83;;;;;;;;;;10446877;28;20029;-59
2022/08/03 23:45:02;;;;;;;6.95;2.10;;;;;;;;;;10446033;28;20037;-59
2022/08/03 23:50:03;;;;;;;11.68;1.85;;;;;;;;;;10448807;28;20029;-61
2022/08/03 23:55:28;;;;;;;4.15;2.00;;;;;;;;;;10457170;28;20099;-58
